• Join FlightAware (Why Join?)
  • Login
  • US Flag 
02:56PM EDT


 

Airport Tracker/Info


-or-


 

Live Flight TrackerFlight Track Log ✈ EGF2992 ✈ 10-Apr-2013 ✈ KDFW - KCHS

Flight Track Log - Related Links

Times and Time Zones

All times are in EDT time to prevent confusion due to time zone crossing. See the EGF2992 flight status page for this flight to view local times or setup timezone preferences in your user account.

Time Position Orientation Groundspeed Altitude Reporting Facility
EDT Latitude Longitude Course Direction KTS MPH feet Rate Location/Type
11:25PM 32.9333 -97.0167 84° East 160 184 2,100  Level Dallas / Fort Worth TRACON
11:26PM 32.9833 -97.0000 16° North 194 223 4,500 1,860 Climbing Dallas / Fort Worth TRACON
11:27PM 32.6833 -96.7934 90° East  Level FlightAware Approximate
11:27PM 33.0000 -96.9333 73° East 280 322 5,900  Level Dallas / Fort Worth TRACON
11:28PM 32.7087 -96.6487 77° East  Level FlightAware Approximate
11:28PM 32.9864 -96.7967 97° East 287 330 9,100  Level Fort Worth Center
11:29PM 32.7344 -96.5039 84° East  Level FlightAware Approximate
11:29PM 32.9817 -96.6853 93° East 319 367 10,500  Level Fort Worth Center
11:30PM 32.7467 -96.3565 84° East  Level FlightAware Approximate
11:30PM 32.9786 -96.5639 92° East 331 381 11,500  Level Fort Worth Center
11:31PM 32.9778 -96.4353 90° East 379 436 13,100 1,560 Climbing Fort Worth Center
11:32PM 32.9811 -96.3214 88° East 389 448 14,700 1,800 Climbing Fort Worth Center
11:33PM 32.9839 -96.1778 89° East 389 448 16,700 1,920 Climbing Fort Worth Center
11:34PM 32.9911 -96.0636 86° East 382 440 18,600 1,980 Climbing Fort Worth Center
11:35PM 33.0000 -95.9272 86° East 382 440 20,800 1,980 Climbing Fort Worth Center
11:36PM 32.9778 -95.8186 104° East 358 412 22,600 1,500 Climbing Fort Worth Center
11:37PM 32.9472 -95.7250 111° Southeast 339 390 23,900 1,140 Climbing Fort Worth Center
11:38PM 32.9125 -95.6169 111° Southeast 349 402 25,000 1,080 Climbing Fort Worth Center
11:39PM 32.8772 -95.4989 110° East 363 418 26,100 1,080 Climbing Fort Worth Center
11:40PM 32.8400 -95.3808 111° Southeast 375 432 27,200 1,080 Climbing Fort Worth Center
11:41PM 32.7981 -95.2483 111° Southeast 380 437 28,300 1,020 Climbing Fort Worth Center
11:42PM 32.7583 -95.1258 111° Southeast 385 443 29,300 1,020 Climbing Fort Worth Center
11:43PM 32.7228 -95.0058 109° East 385 443 30,400 1,020 Climbing Fort Worth Center
11:44PM 32.6828 -94.8811 111° Southeast 391 450 31,400 1,020 Climbing Fort Worth Center
11:45PM 32.6425 -94.7564 111° Southeast 397 457 32,500 1,020 Climbing Fort Worth Center
11:46PM 32.6064 -94.6292 109° East 402 463 33,500 1,020 Climbing Fort Worth Center
11:47PM 32.5617 -94.4975 112° Southeast 416 479 34,600 720 Climbing Fort Worth Center
11:48PM 32.5231 -94.3656 109° East 416 479 35,000 180 Climbing Fort Worth Center
11:49PM 32.4800 -94.2292 110° East 428 493 35,000  Level Fort Worth Center
11:50PM 32.4303 -94.0858 112° Southeast 444 511 35,000  Level Fort Worth Center
11:51PM 32.3950 -93.9369 106° East 455 524 35,000  Level Fort Worth Center
11:52PM 32.3944 -93.7672 90° East 488 562 35,000  Level Fort Worth Center
11:53PM 32.3978 -93.5975 89° East 499 574 35,000  Level Fort Worth Center
11:54PM 32.4033 -93.4372 88° East 499 574 35,000  Level Fort Worth Center
11:55PM 32.4358 -93.2856 76° East 485 558 35,000  Level Fort Worth Center
11:56PM 32.4789 -93.1358 71° East 478 550 35,000  Level Fort Worth Center
11:57PM 32.5008 -92.9872 80° East 465 535 35,000  Level Fort Worth Center
11:58PM 32.4586 -92.8564 111° Southeast 426 490 35,000  Level Fort Worth Center
12:00AM 32.3194 -92.6414 127° Southeast 419 482 35,000  Level Houston Center
12:01AM 32.2561 -92.5206 122° Southeast 431 496 35,000  Level Houston Center
12:02AM 32.1944 -92.4006 121° Southeast 430 495 35,000  Level Houston Center
12:03AM 32.1364 -92.2792 119° Southeast 429 494 35,000 -60 Level Houston Center
12:04AM 32.1297 -92.1272 93° East 462 532 34,900  Descending Houston Center
12:05AM 32.1364 -91.9514 87° East 473 544 35,000  Climbing Houston Center
12:06AM 32.1422 -91.7972 87° East 471 542 35,000  Level Houston Center
12:07AM 32.1481 -91.6442 87° East 468 539 35,000 420 Level Houston Center
12:08AM 32.1308 -91.4925 98° East 465 535 35,900 900 Climbing Houston Center
12:09AM 32.1367 -91.3439 87° East 453 521 36,900 600 Climbing Houston Center
12:10AM 32.1408 -91.2331 87° East 455 524 37,000  Climbing Memphis Center
12:11AM 32.1481 -91.0811 87° East 455 524 37,000  Level Memphis Center
12:12AM 32.1508 -90.9267 89° East 462 532 37,000  Level Memphis Center
12:13AM 32.1597 -90.7697 86° East 467 537 37,000  Level Memphis Center
12:14AM 32.1622 -90.6125 89° East 473 544 37,000  Level Memphis Center
12:15AM 32.1667 -90.4506 88° East 478 550 37,000  Level Memphis Center
12:16AM 32.1731 -90.2886 87° East 483 556 37,000  Level Memphis Center
12:17AM 32.1769 -90.1242 88° East 493 567 37,000  Level Memphis Center
12:18AM 32.1828 -89.9425 88° East 501 577 37,000  Level Memphis Center
12:19AM 32.1861 -89.7781 89° East 496 571 37,000  Level Memphis Center
12:20AM 32.1917 -89.6111 88° East 496 571 37,000  Level Memphis Center
12:21AM 32.1925 -89.4442 90° East 496 571 37,000  Level Memphis Center
12:22AM 32.1975 -89.2797 88° East 496 571 37,000  Level Memphis Center
12:25AM 32.2042 -88.8964 89° East 502 578 37,000  Level Atlanta Center
12:26AM 32.2086 -88.7297 88° East 507 583 37,000  Level Atlanta Center
12:27AM 32.2083 -88.5628 90° East 507 583 37,000 -240 Level Atlanta Center
12:28AM 32.2144 -88.3961 87° East 507 583 36,600 -1,140 Descending Atlanta Center
12:29AM 32.2158 -88.2367 89° East 497 572 34,800 -1,920 Descending Atlanta Center
12:30AM 32.2189 -88.0847 89° East 478 550 32,800 -1,800 Descending Atlanta Center
12:31AM 32.2194 -87.9350 90° East 464 534 31,200 -900 Descending Atlanta Center
12:32AM 32.2219 -87.7853 89° East 454 522 31,000 -120 Descending Atlanta Center
12:33AM 32.2225 -87.6306 90° East 460 529 31,000  Level Atlanta Center
12:34AM 32.2411 -87.4842 81° East 455 524 31,000  Level Atlanta Center
12:35AM 32.2539 -87.3272 84° East 466 536 31,000  Level Atlanta Center
12:36AM 32.2744 -87.1808 81° East 466 536 31,000  Level Atlanta Center
12:37AM 32.2928 -87.0267 82° East 466 536 31,000  Level Atlanta Center
12:38AM 32.3089 -86.8772 83° East 466 536 31,000  Level Atlanta Center
12:39AM 32.3269 -86.7278 82° East 461 531 31,000  Level Atlanta Center
12:40AM 32.3489 -86.5786 80° East 456 525 31,000  Level Atlanta Center
12:41AM 32.3642 -86.4292 83° East 456 525 31,000  Level Atlanta Center
12:42AM 32.3731 -86.2917 86° East 464 534 31,000  Level Atlanta Center
12:43AM 32.3861 -86.1419 84° East 459 528 31,000  Level Atlanta Center
12:44AM 32.3992 -85.9922 84° East 459 528 31,000  Level Atlanta Center
12:45AM 32.4161 -85.8400 82° East 459 528 31,000  Level Atlanta Center
12:46AM 32.4367 -85.6975 80° East 479 551 31,000  Level Atlanta Center
12:47AM 32.4536 -85.5331 83° East 473 544 31,000  Level Atlanta Center
12:48AM 32.4700 -85.3806 83° East 468 539 31,000  Level Atlanta Center
12:49AM 32.4861 -85.2283 83° East 463 533 31,000  Level Atlanta Center
12:50AM 32.4958 -85.0756 86° East 463 533 31,000  Level Atlanta Center
12:51AM 32.5136 -84.9231 82° East 463 533 31,000  Level Atlanta Center
12:52AM 32.5272 -84.7778 84° East 463 533 31,000  Level Atlanta Center
12:53AM 32.5425 -84.6278 83° East 458 527 31,000  Level Atlanta Center
12:54AM 32.5578 -84.4700 83° East 464 534 31,000  Level Atlanta Center
12:55AM 32.5728 -84.3222 83° East 464 534 31,000  Level Atlanta Center
12:56AM 32.5878 -84.1694 83° East 464 534 31,000  Level Atlanta Center
12:57AM 32.6025 -84.0142 84° East 464 534 31,000  Level Atlanta Center
12:58AM 32.6272 -83.7361 84° East 480 552 31,000  Level Jacksonville Center
12:59AM 32.6386 -83.5858 85° East 480 552 31,000  Level Jacksonville Center
01:00AM 32.6519 -83.4306 84° East 475 547 31,000  Level Jacksonville Center
01:01AM 32.6650 -83.2750 84° East 475 547 31,000  Level Jacksonville Center
01:02AM 32.6819 -83.1025 83° East 475 547 31,000  Level Jacksonville Center
01:03AM 32.6925 -82.9494 85° East 475 547 31,000  Level Jacksonville Center
01:04AM 32.7031 -82.7964 85° East 475 547 31,000  Level Jacksonville Center
01:05AM 32.7175 -82.6358 84° East 480 552 31,000  Level Jacksonville Center
01:06AM 32.7317 -82.4850 84° East 480 552 31,000  Level Jacksonville Center
01:07AM 32.7394 -82.3369 86° East 480 552 31,000  Level Jacksonville Center
01:08AM 32.7533 -82.1811 84° East 480 552 31,000  Level Jacksonville Center
01:09AM 32.7647 -82.0231 85° East 480 552 31,000 -420 Level Jacksonville Center
01:10AM 32.7781 -81.8622 84° East 480 552 30,200 -900 Descending Jacksonville Center
01:11AM 32.7872 -81.7139 86° East 474 545 29,300 -1,020 Descending Jacksonville Center
01:12AM 32.7983 -81.5631 85° East 458 527 28,200 -1,020 Descending Jacksonville Center
01:13AM 32.8114 -81.4094 84° East 458 527 27,300 -1,200 Descending Jacksonville Center
01:14AM 32.8197 -81.2586 86° East 458 527 25,900 -2,400 Descending Jacksonville Center
01:15AM 32.8325 -81.1100 84° East 458 527 22,500 -3,480 Descending Jacksonville Center
01:16AM 32.8408 -80.9689 86° East 448 516 19,000 -3,420 Descending Jacksonville Center
01:17AM 32.8492 -80.8328 86° East 433 498 15,700 -3,300 Descending Jacksonville Center
01:18AM 32.8572 -80.6992 86° East 412 474 12,400 -2,400 Descending Jacksonville Center
01:19AM 32.8719 -80.5800 82° East 384 442 10,900 -1,380 Descending Jacksonville Center
01:20AM 32.8994 -80.4878 70° East 338 389 9,700 -1,500 Descending Jacksonville Center
01:21AM 32.9269 -80.3981 70° East 301 346 8,000 -1,800 Descending Jacksonville Center
01:22AM 32.9544 -80.3131 69° East 281 323 6,200 -1,680 Descending Jacksonville Center
01:23AM 32.9819 -80.2306 68° East 270 311 4,700 -1,500 Descending Jacksonville Center
01:24AM 33.0011 -80.1483 74° East 264 304 3,200 -1,320 Descending Jacksonville Center
01:25AM 32.9992 -80.0689 92° East 247 284 2,100 -960 Descending Jacksonville Center
01:26AM 32.9669 -80.0256 132° Southeast 211 243 1,300 -780 Descending Jacksonville Center
01:27AM 32.9336 -80.0242 178° South 131 151 600 -720 Descending Jacksonville Center
01:29AM 32.8986 -80.0405 190° South  Level Estimated
01:36AM 32.8986 -80.0405 190° South  Level Estimated